createdAt,value
2022-09-22T00:00:44.312Z,82.64
2022-09-22T00:06:09.454Z,82.30
2022-09-22T00:11:18.953Z,81.81
2022-09-22T00:16:28.576Z,82.03
2022-09-22T00:21:34.673Z,82.31
2022-09-22T00:26:42.239Z,81.55
2022-09-22T00:31:48.445Z,81.85
2022-09-22T00:36:54.688Z,81.72
2022-09-22T00:42:01.973Z,81.86
2022-09-22T00:47:26.311Z,81.78
2022-09-22T00:53:28.005Z,81.71
2022-09-22T00:58:42.383Z,81.74
2022-09-22T01:03:49.330Z,81.55
2022-09-22T01:08:57.186Z,81.68
2022-09-22T01:14:18.379Z,81.59
2022-09-22T01:20:23.977Z,80.84
2022-09-22T01:26:02.166Z,80.42
2022-09-22T01:31:17.743Z,80.26
2022-09-22T01:36:33.029Z,80.85
2022-09-22T01:41:52.891Z,81.06
2022-09-22T01:47:06.818Z,81.82
2022-09-22T01:52:21.129Z,81.50
2022-09-22T01:57:36.603Z,80.88
2022-09-22T02:02:51.876Z,80.78
2022-09-22T02:08:01.399Z,80.64
2022-09-22T02:13:07.589Z,80.48
2022-09-22T02:18:20.438Z,80.20
2022-09-22T02:23:26.612Z,80.48
2022-09-22T02:28:38.117Z,81.28
2022-09-22T02:33:45.675Z,80.69
2022-09-22T02:39:00.310Z,80.76
2022-09-22T02:44:14.194Z,80.04
2022-09-22T02:49:23.159Z,80.43
2022-09-22T02:54:29.182Z,80.48
2022-09-22T02:59:35.573Z,80.63
2022-09-22T03:04:42.939Z,80.92
2022-09-22T03:09:49.153Z,80.47
2022-09-22T03:14:55.466Z,81.11
2022-09-22T03:20:03.310Z,80.77
2022-09-22T03:25:11.262Z,81.23
2022-09-22T03:30:17.661Z,80.86
2022-09-22T03:35:25.189Z,81.50
2022-09-22T03:40:31.230Z,81.69
2022-09-22T03:45:37.292Z,82.16
2022-09-22T03:50:44.916Z,82.10
2022-09-22T03:55:51.071Z,82.00
2022-09-22T04:00:58.594Z,82.27
2022-09-22T04:06:07.188Z,82.37
2022-09-22T04:11:13.265Z,82.75
2022-09-22T04:16:19.619Z,83.36
2022-09-22T04:21:27.022Z,82.96
2022-09-22T04:26:32.986Z,83.62
2022-09-22T04:31:39.295Z,83.84
2022-09-22T04:36:46.647Z,84.26
2022-09-22T04:41:52.693Z,83.57
2022-09-22T04:46:58.648Z,84.31
2022-09-22T04:52:08.048Z,83.81
2022-09-22T04:57:18.337Z,84.21
2022-09-22T05:02:26.508Z,84.28
2022-09-22T05:07:34.133Z,84.26
2022-09-22T05:12:42.119Z,84.10
2022-09-22T05:17:49.871Z,84.61
2022-09-22T05:22:57.267Z,84.69
2022-09-22T05:28:03.585Z,84.54
2022-09-22T05:33:09.577Z,85.19
2022-09-22T05:38:16.883Z,84.25
2022-09-22T05:43:22.827Z,84.83
2022-09-22T05:48:31.222Z,85.01
2022-09-22T05:53:39.186Z,84.90
2022-09-22T05:58:45.399Z,85.10
2022-09-22T06:03:51.798Z,84.36
2022-09-22T06:08:59.310Z,83.87
2022-09-22T06:14:05.154Z,83.93
2022-09-22T06:19:11.157Z,84.28
2022-09-22T06:24:18.687Z,82.75
2022-09-22T06:29:24.828Z,82.75
2022-09-22T06:34:30.938Z,81.60
2022-09-22T06:39:38.766Z,82.83
2022-09-22T06:44:44.830Z,82.48
2022-09-22T06:49:51.100Z,81.53
2022-09-22T06:55:01.452Z,83.11
2022-09-22T07:00:10.004Z,82.32
2022-09-22T07:05:18.948Z,82.84
2022-09-22T07:10:26.714Z,83.35
2022-09-22T07:15:33.308Z,83.98
2022-09-22T07:20:39.325Z,84.09
2022-09-22T07:25:56.749Z,82.90
2022-09-22T07:31:06.381Z,81.52
2022-09-22T07:36:16.086Z,82.00
2022-09-22T07:41:25.300Z,81.88
2022-09-22T07:46:31.365Z,81.40
2022-09-22T07:51:38.947Z,82.00
2022-09-22T07:56:47.455Z,83.08
2022-09-22T08:01:54.509Z,82.57
2022-09-22T08:07:00.612Z,82.72
2022-09-22T08:12:10.855Z,82.94
2022-09-22T08:17:17.480Z,82.35
2022-09-22T08:22:24.002Z,82.03
2022-09-22T08:27:31.569Z,81.98
2022-09-22T08:32:37.931Z,81.34
2022-09-22T08:37:44.796Z,80.81
2022-09-22T08:42:55.883Z,80.86
2022-09-22T08:48:26.639Z,81.75
2022-09-22T08:53:36.906Z,80.65
2022-09-22T08:58:55.548Z,80.41
2022-09-22T09:04:11.582Z,80.16
2022-09-22T09:09:44.318Z,80.37
2022-09-22T09:15:21.143Z,79.55
2022-09-22T09:20:39.176Z,79.04
2022-09-22T09:25:46.705Z,79.16
2022-09-22T09:30:57.929Z,78.43
2022-09-22T09:36:04.334Z,77.24
2022-09-22T09:41:18.264Z,75.46
2022-09-22T09:46:41.138Z,75.58
2022-09-22T09:51:51.448Z,76.02
2022-09-22T09:57:13.901Z,71.85
2022-09-22T10:02:27.771Z,71.25
2022-09-22T10:07:45.189Z,72.11
2022-09-22T10:12:51.780Z,72.47
2022-09-22T10:17:59.496Z,72.57
2022-09-22T10:23:22.809Z,71.07
2022-09-22T10:28:28.749Z,71.48
2022-09-22T10:33:40.492Z,66.92
2022-09-22T10:38:51.654Z,67.66
2022-09-22T10:44:06.412Z,67.96
2022-09-22T10:49:31.991Z,66.53
2022-09-22T10:55:10.756Z,68.09
2022-09-22T11:00:19.455Z,68.62
2022-09-22T11:06:01.703Z,69.61
2022-09-22T11:11:33.636Z,69.66
2022-09-22T11:17:16.267Z,70.19
2022-09-22T11:22:44.064Z,66.72
2022-09-22T11:28:09.378Z,67.61
2022-09-22T11:34:09.512Z,66.16
2022-09-22T11:39:44.074Z,67.06
2022-09-22T11:45:09.192Z,65.80
2022-09-22T11:50:36.492Z,66.99
2022-09-22T11:55:53.124Z,67.05
2022-09-22T12:01:10.917Z,66.26
2022-09-22T12:06:24.928Z,66.28
2022-09-22T12:11:36.630Z,66.73
2022-09-22T12:16:49.299Z,66.46
2022-09-22T12:22:07.733Z,67.42
2022-09-22T12:27:23.421Z,67.10
2022-09-22T12:32:38.284Z,67.42
2022-09-22T12:37:44.797Z,66.45
2022-09-22T12:42:54.610Z,66.33
2022-09-22T12:48:06.002Z,66.59
2022-09-22T12:53:28.234Z,66.14
2022-09-22T12:58:48.131Z,66.05
2022-09-22T13:04:04.666Z,64.26
2022-09-22T13:09:21.939Z,65.04
2022-09-22T13:15:21.393Z,65.09
2022-09-22T13:20:33.927Z,65.00
2022-09-22T13:25:42.799Z,65.20
2022-09-22T13:31:04.949Z,64.49
2022-09-22T13:36:17.200Z,65.92
2022-09-22T13:41:26.601Z,66.53
2022-09-22T13:46:41.326Z,66.70
2022-09-22T13:51:55.928Z,65.33
2022-09-22T13:57:09.399Z,65.44
2022-09-22T14:02:28.201Z,65.25
2022-09-22T14:07:55.172Z,64.71
2022-09-22T14:13:05.270Z,63.09
2022-09-22T14:18:21.121Z,62.48
2022-09-22T14:23:32.215Z,63.71
2022-09-22T14:28:42.985Z,64.07
2022-09-22T14:33:50.714Z,64.82
2022-09-22T14:39:10.176Z,65.58
2022-09-22T14:44:39.780Z,66.19
2022-09-22T14:49:49.265Z,65.43
2022-09-22T14:54:58.140Z,66.05
2022-09-22T15:00:22.396Z,67.18
2022-09-22T15:05:34.517Z,67.71
2022-09-22T15:10:41.156Z,67.72
2022-09-22T15:15:49.199Z,67.91
2022-09-22T15:21:00.073Z,68.44
2022-09-22T15:26:07.062Z,68.75
2022-09-22T15:31:22.631Z,68.72
2022-09-22T15:36:32.345Z,69.29
2022-09-22T15:41:38.898Z,69.16
2022-09-22T15:46:50.624Z,68.48
2022-09-22T15:51:58.552Z,68.67
2022-09-22T15:57:08.138Z,68.39
2022-09-22T16:02:17.612Z,68.56
2022-09-22T16:07:25.270Z,68.75
2022-09-22T16:12:32.005Z,68.88
2022-09-22T16:17:38.619Z,68.83
2022-09-22T16:22:46.892Z,68.78
2022-09-22T16:27:52.967Z,69.55
2022-09-22T16:32:59.776Z,69.38
2022-09-22T16:38:07.221Z,69.83
2022-09-22T16:43:13.519Z,69.79
2022-09-22T16:48:19.583Z,70.31
2022-09-22T16:53:27.219Z,70.74
2022-09-22T16:58:34.015Z,70.66
2022-09-22T17:03:41.512Z,71.11
2022-09-22T17:08:48.951Z,71.49
2022-09-22T17:13:55.973Z,71.89
2022-09-22T17:19:05.057Z,72.16
2022-09-22T17:24:13.374Z,72.08
2022-09-22T17:29:25.327Z,72.18
2022-09-22T17:34:34.409Z,72.91
2022-09-22T17:39:43.842Z,72.71
2022-09-22T17:44:49.931Z,73.29
2022-09-22T17:50:13.091Z,73.25
2022-09-22T17:55:25.688Z,73.41
2022-09-22T18:00:34.068Z,73.21
2022-09-22T18:05:41.451Z,73.67
2022-09-22T18:10:49.423Z,73.70
2022-09-22T18:15:55.743Z,73.49
2022-09-22T18:21:06.462Z,74.15
2022-09-22T18:26:14.535Z,74.12
2022-09-22T18:31:20.553Z,74.19
2022-09-22T18:36:27.196Z,74.18
2022-09-22T18:41:35.822Z,74.32
2022-09-22T18:46:48.920Z,74.63
2022-09-22T18:51:59.095Z,75.27
2022-09-22T18:57:12.677Z,75.17
2022-09-22T19:02:23.213Z,75.20
2022-09-22T19:07:42.990Z,75.36
2022-09-22T19:12:51.259Z,75.13
2022-09-22T19:17:58.771Z,75.28
2022-09-22T19:23:07.494Z,75.43
2022-09-22T19:28:16.385Z,75.06
2022-09-22T19:33:25.005Z,75.01
2022-09-22T19:38:32.314Z,74.71
2022-09-22T19:43:39.992Z,74.66
2022-09-22T19:48:46.548Z,74.58
2022-09-22T19:53:57.272Z,74.07
2022-09-22T19:59:07.492Z,74.38
2022-09-22T20:04:18.125Z,74.15
2022-09-22T20:09:24.069Z,74.44
2022-09-22T20:14:32.309Z,74.61
2022-09-22T20:19:39.957Z,74.98
2022-09-22T20:24:54.246Z,74.58
2022-09-22T20:30:02.958Z,73.57
2022-09-22T20:35:12.162Z,73.07
2022-09-22T20:40:23.364Z,73.23
2022-09-22T20:45:30.814Z,72.87
2022-09-22T20:50:36.774Z,72.77
2022-09-22T20:55:42.965Z,72.83
2022-09-22T21:00:51.903Z,73.22
2022-09-22T21:06:01.813Z,73.98
2022-09-22T21:11:14.296Z,72.79
2022-09-22T21:16:22.063Z,72.75
2022-09-22T21:21:28.545Z,71.71
2022-09-22T21:26:35.333Z,72.50
2022-09-22T21:31:42.898Z,72.34
2022-09-22T21:36:49.261Z,72.48
2022-09-22T21:41:55.294Z,73.63
2022-09-22T21:47:02.769Z,73.69
2022-09-22T21:52:08.758Z,72.07
2022-09-22T21:57:14.741Z,72.29
2022-09-22T22:02:22.201Z,71.89
2022-09-22T22:07:28.250Z,71.71
2022-09-22T22:12:34.905Z,72.01
2022-09-22T22:17:42.314Z,72.11
2022-09-22T22:22:48.226Z,72.36
2022-09-22T22:27:57.094Z,72.54
2022-09-22T22:33:04.286Z,72.26
2022-09-22T22:38:11.043Z,71.17
2022-09-22T22:43:18.231Z,71.87
2022-09-22T22:48:26.446Z,71.83
2022-09-22T22:53:32.222Z,72.17
2022-09-22T22:58:39.415Z,72.46
2022-09-22T23:03:49.542Z,72.52
2022-09-22T23:08:56.409Z,73.15
2022-09-22T23:14:03.494Z,74.69
2022-09-22T23:19:14.164Z,75.73
2022-09-22T23:24:20.187Z,76.35
2022-09-22T23:29:26.120Z,78.75
2022-09-22T23:34:33.714Z,78.89
2022-09-22T23:39:39.405Z,79.12
2022-09-22T23:44:45.136Z,79.89
2022-09-22T23:49:52.285Z,80.28
2022-09-22T23:54:57.997Z,80.50
